Diretta Meteo Pisa-S Giusto, Italiamartedì 23 luglio ore 04:45

Mappa
Sereno 21 °C Foschia Nebbia nelle Vicinanze 24 Ore: T.min 18 T.max 31
Ponente Est Km/h 7.4 Punto di rugiada: 20 °C Umidità: 94% Visibilità: 5 Km
Il sole sorge alle: 05:56 Il sole tramonta alle: 20:53
23 Luglio 2019 04:45 tempo osservato: Foschia Nebbia nelle Vicinanze Foschia Nebbia nelle Vicinanze 21 94 1020 vento: Nord E 7.4
23 Luglio 2019 04:15 tempo osservato: Foschia Banco di Nebbia Foschia Banco di Nebbia 21 100 1020 vento: Nord N 5.5
23 Luglio 2019 03:45 tempo osservato: Foschia Banco di Nebbia Foschia Banco di Nebbia 21 100 1020 vento: Nord N 3.7
23 Luglio 2019 03:15 tempo osservato: Nebbia a Strati Nebbia a Strati 21 100 1020 vento: Nord N 3.7
23 Luglio 2019 02:45 tempo osservato: Sereno Sereno 21 100 1020 vento: Nord N 3.7
23 Luglio 2019 02:15 tempo osservato: Sereno Sereno 22 100 1020 vento: Nord N 1.8
23 Luglio 2019 01:45 tempo osservato: Sereno Sereno 22 94 1020 vento: Nord N 3.7
23 Luglio 2019 01:15 tempo osservato: Sereno Sereno 22 94 1020 vento: Nord N 3.7
23 Luglio 2019 00:15 tempo osservato: Sereno Sereno 24 94 1020 vento: Nord N 5.5
22 Luglio 2019 23:45 tempo osservato: Sereno Sereno 24 94 1020 vento: Nord N 5.5
22 Luglio 2019 23:15 tempo osservato: Sereno Sereno 24 94 1020 vento: Nord N 5.5
22 Luglio 2019 22:45 tempo osservato: Sereno Sereno 24 94 1020 vento: Nord N 5.5
22 Luglio 2019 22:15 tempo osservato: Sereno Sereno 25 88 1020 vento: Nord N 5.5
22 Luglio 2019 21:45 tempo osservato: Sereno Sereno 25 88 1020 vento: Nord O 7.4
22 Luglio 2019 21:15 tempo osservato: Sereno Sereno 25 88 1020 vento: Nord O 7.4
22 Luglio 2019 20:45 tempo osservato: Sereno Sereno 25 88 1020 vento: Nord O 9.3
22 Luglio 2019 20:15 tempo osservato: Sereno Sereno 26 78 1020 vento: Nord O/NO 9.3
22 Luglio 2019 19:45 tempo osservato: Sereno Sereno 27 69 1020 vento: Nord O/NO 13
22 Luglio 2019 19:15 tempo osservato: Sereno Sereno 27 65 1020 vento: Nord O/NO 16.7
22 Luglio 2019 18:45 tempo osservato: Sereno Sereno 28 61 1020 vento: Nord O/NO 14.8
22 Luglio 2019 18:15 tempo osservato: Sereno Sereno 29 54 1020 vento: Nord NO 14.8
22 Luglio 2019 17:45 tempo osservato: Sereno Sereno 29 54 1020 vento: Nord O/NO 14.8
22 Luglio 2019 17:15 tempo osservato: Sereno Sereno 29 51 1020 vento: Nord O/NO 14.8
22 Luglio 2019 16:45 tempo osservato: Sereno Sereno 30 45 1021 vento: Nord O/NO 16.7
22 Luglio 2019 16:15 tempo osservato: Sereno Sereno 30 45 1021 vento: Nord O/NO 16.7
22 Luglio 2019 15:45 tempo osservato: Sereno Sereno 30 45 1021 vento: Nord O/NO 16.7
22 Luglio 2019 15:15 tempo osservato: Sereno Sereno 30 45 1021 vento: Nord O/NO 16.7
22 Luglio 2019 14:45 tempo osservato: Sereno Sereno 31 43 1021 vento: Nord O 14.8
22 Luglio 2019 14:15 tempo osservato: Sereno Sereno 30 42 1021 vento: Nord NO 14.8
22 Luglio 2019 13:45 tempo osservato: Sereno Sereno 30 48 1022 vento: Nord O/NO 14.8
22 Luglio 2019 13:15 tempo osservato: Sereno Sereno 30 48 1022 vento: Nord O/NO 16.7
22 Luglio 2019 12:45 tempo osservato: Sereno Sereno 29 51 1022 vento: Nord O/NO 13
22 Luglio 2019 12:15 tempo osservato: Sereno Sereno 29 48 1022 vento: Nord N/NO 11.1
22 Luglio 2019 11:45 tempo osservato: Sereno Sereno 28 58 1022 vento: Nord O/NO 7.4
22 Luglio 2019 11:15 tempo osservato: Sereno Sereno 28 58 1022 vento: Nord N 5.5
22 Luglio 2019 10:45 tempo osservato: Sereno Sereno 27 65 1022 vento: Nord N 3.7
22 Luglio 2019 10:15 tempo osservato: Sereno Sereno 25 69 1022 vento: Nord N 3.7
22 Luglio 2019 09:45 tempo osservato: Sereno Sereno 24 78 1022 vento: Nord N 5.5
22 Luglio 2019 09:15 tempo osservato: Sereno Sereno 23 83 1022 vento: Nord N 5.5
22 Luglio 2019 08:45 tempo osservato: Sereno Sereno 22 88 1022 vento: Nord N 5.5
22 Luglio 2019 08:15 tempo osservato: Sereno Sereno 20 93 1022 vento: Nord N 5.5
22 Luglio 2019 07:45 tempo osservato: Sereno Sereno 20 93 1022 vento: Nord E/SE 7.4
22 Luglio 2019 07:15 tempo osservato: Sereno Sereno 19 93 1022 vento: Nord N 5.5
22 Luglio 2019 06:45 tempo osservato: Sereno Sereno 18 93 1022 vento: Nord E/SE 7.4
22 Luglio 2019 06:15 tempo osservato: Sereno Sereno 18 93 1022 vento: Nord N 5.5
22 Luglio 2019 05:45 tempo osservato: Sereno Sereno 18 93 1022 vento: Nord N 5.5